createdAt,value
2016-11-14T00:00:33.485Z,1033.02
2016-11-14T00:01:43.831Z,1033.03
2016-11-14T00:02:54.267Z,1033.09
2016-11-14T00:04:03.965Z,1033.06
2016-11-14T00:05:13.349Z,1033.1
2016-11-14T00:06:23.061Z,1033.07
2016-11-14T00:07:33.414Z,1033.09
2016-11-14T00:08:43.447Z,1033.11
2016-11-14T00:09:53.774Z,1033.07
2016-11-14T00:11:03.177Z,1033.12
2016-11-14T00:12:13.281Z,1033.14
2016-11-14T00:13:22.993Z,1033.13
2016-11-14T00:14:32.704Z,1033.2
2016-11-14T00:15:43.072Z,1033.15
2016-11-14T00:16:52.775Z,1033.18
2016-11-14T00:18:02.163Z,1033.23
2016-11-14T00:19:11.655Z,1033.23
2016-11-14T00:20:21.411Z,1033.26
2016-11-14T00:21:31.724Z,1033.27
2016-11-14T00:22:41.423Z,1033.29
2016-11-14T00:23:51.753Z,1033.28
2016-11-14T00:25:01.814Z,1033.3
2016-11-14T00:26:12.334Z,1033.31
2016-11-14T00:27:22.652Z,1033.33
2016-11-14T00:28:32.652Z,1033.32
2016-11-14T00:29:42.703Z,1033.32
2016-11-14T00:30:52.487Z,1033.31
2016-11-14T00:32:02.790Z,1033.29
2016-11-14T00:33:12.537Z,1033.3
2016-11-14T00:34:22.623Z,1033.28
2016-11-14T00:35:32.599Z,1033.29
2016-11-14T00:36:42.290Z,1033.27
2016-11-14T00:37:52.314Z,1033.23
2016-11-14T00:39:02.317Z,1033.21
2016-11-14T00:40:12.004Z,1033.21
2016-11-14T00:41:22.007Z,1033.19
2016-11-14T00:42:31.684Z,1033.22
2016-11-14T00:43:41.055Z,1033.24
2016-11-14T00:44:51.399Z,1033.23
2016-11-14T00:46:01.782Z,1033.22
2016-11-14T00:47:11.495Z,1033.14
2016-11-14T00:48:20.871Z,1033.18
2016-11-14T00:49:31.169Z,1033.17
2016-11-14T00:50:40.926Z,1033.19
2016-11-14T00:51:50.631Z,1033.18
2016-11-14T00:53:00.926Z,1033.18
2016-11-14T00:54:10.985Z,1033.16
2016-11-14T00:55:20.982Z,1033.2
2016-11-14T00:56:31.006Z,1033.21
2016-11-14T00:57:40.393Z,1033.2
2016-11-14T00:58:50.081Z,1033.16
2016-11-14T00:59:59.766Z,1033.15
2016-11-14T01:01:09.590Z,1033.17
2016-11-14T01:02:19.757Z,1033.16
2016-11-14T01:03:30.170Z,1033.11
2016-11-14T01:04:39.863Z,1033.14
2016-11-14T01:05:49.867Z,1033.1
2016-11-14T01:06:59.560Z,1033.07
2016-11-14T01:08:09.266Z,1033.13
2016-11-14T01:09:19.067Z,1033.11
2016-11-14T01:10:29.079Z,1033.08
2016-11-14T01:11:39.084Z,1033.13
2016-11-14T01:12:49.120Z,1033.09
2016-11-14T01:13:59.479Z,1033.12
2016-11-14T01:15:09.569Z,1033.15
2016-11-14T01:16:19.591Z,1033.15
2016-11-14T01:17:29.347Z,1033.14
2016-11-14T01:18:39.348Z,1033.14
2016-11-14T01:19:49.460Z,1033.12
2016-11-14T01:20:58.826Z,1033.12
2016-11-14T01:22:08.207Z,1033.11
2016-11-14T01:23:18.084Z,1033.14
2016-11-14T01:24:27.799Z,1033.15
2016-11-14T01:25:37.487Z,1033.08
2016-11-14T01:26:47.616Z,1033.08
2016-11-14T01:27:57.009Z,1033.09
2016-11-14T01:29:07.447Z,1033.07
2016-11-14T01:30:17.136Z,1033.07
2016-11-14T01:31:27.461Z,1033.08
2016-11-14T01:32:37.500Z,1033.1
2016-11-14T01:33:47.827Z,1033.14
2016-11-14T01:34:57.695Z,1033.14
2016-11-14T01:36:07.399Z,1033.18
2016-11-14T01:37:17.387Z,1033.15
2016-11-14T01:38:27.077Z,1033.14
2016-11-14T01:39:37.168Z,1033.16
2016-11-14T01:40:47.196Z,1033.11
2016-11-14T01:41:57.196Z,1033.11
2016-11-14T01:43:06.926Z,1033.12
2016-11-14T01:44:16.951Z,1033.11
2016-11-14T01:45:27.286Z,1033.11
2016-11-14T01:46:37.688Z,1033.09
2016-11-14T01:47:47.678Z,1033.12
2016-11-14T01:48:57.691Z,1033.15
2016-11-14T01:50:07.749Z,1033.14
2016-11-14T01:51:17.461Z,1033.17
2016-11-14T01:52:27.909Z,1033.12
2016-11-14T01:53:37.987Z,1033.11
2016-11-14T01:54:47.987Z,1033.11
2016-11-14T01:55:57.992Z,1033.13
2016-11-14T01:57:08.376Z,1033.12
2016-11-14T01:58:18.068Z,1033.1
2016-11-14T01:59:28.152Z,1033.15
2016-11-14T02:00:37.838Z,1033.13
2016-11-14T02:01:48.135Z,1033.11
2016-11-14T02:02:57.892Z,1033.07
2016-11-14T02:04:07.269Z,1033.09
2016-11-14T02:05:17.327Z,1033.04
2016-11-14T02:06:27.298Z,1032.96
2016-11-14T02:07:37.618Z,1032.97
2016-11-14T02:08:48.109Z,1032.96
2016-11-14T02:09:58.308Z,1032.91
2016-11-14T02:11:08.409Z,1032.9
2016-11-14T02:12:18.429Z,1032.93
2016-11-14T02:13:28.466Z,1032.91
2016-11-14T02:14:38.210Z,1032.91
2016-11-14T02:15:48.228Z,1032.96
2016-11-14T02:16:57.601Z,1032.95
2016-11-14T02:18:07.287Z,1032.95
2016-11-14T02:19:17.309Z,1032.91
2016-11-14T02:20:27.309Z,1032.86
2016-11-14T02:21:37.374Z,1032.88
2016-11-14T02:22:47.081Z,1032.86
2016-11-14T02:23:56.900Z,1032.84
2016-11-14T02:25:06.898Z,1032.81
2016-11-14T02:26:16.716Z,1032.78
2016-11-14T02:27:26.427Z,1032.78
2016-11-14T02:28:36.808Z,1032.72
2016-11-14T02:29:46.813Z,1032.75
2016-11-14T02:30:57.128Z,1032.69
2016-11-14T02:32:07.239Z,1032.71
2016-11-14T02:33:17.551Z,1032.7
2016-11-14T02:34:27.646Z,1032.72
2016-11-14T02:35:37.946Z,1032.73
2016-11-14T02:36:48.239Z,1032.73
2016-11-14T02:37:57.327Z,1032.73
2016-11-14T02:39:07.326Z,1032.75
2016-11-14T02:40:17.440Z,1032.79
2016-11-14T02:41:27.550Z,1032.75
2016-11-14T02:42:37.861Z,1032.76
2016-11-14T02:43:47.917Z,1032.75
2016-11-14T02:44:57.618Z,1032.75
2016-11-14T02:46:07.006Z,1032.72
2016-11-14T02:47:16.688Z,1032.72
2016-11-14T02:48:26.815Z,1032.73
2016-11-14T02:49:36.824Z,1032.72
2016-11-14T02:50:46.547Z,1032.73
2016-11-14T02:51:56.547Z,1032.75
2016-11-14T02:53:05.993Z,1032.75
2016-11-14T02:54:15.665Z,1032.84
2016-11-14T02:55:26.123Z,1032.85
2016-11-14T02:56:35.503Z,1032.88
2016-11-14T02:57:45.252Z,1032.88
2016-11-14T02:58:55.558Z,1032.88
2016-11-14T03:00:05.559Z,1032.86
2016-11-14T03:01:15.553Z,1032.85
2016-11-14T03:02:25.559Z,1032.87
2016-11-14T03:03:35.909Z,1032.84
2016-11-14T03:04:45.999Z,1032.89
2016-11-14T03:05:56.172Z,1032.87
2016-11-14T03:07:05.868Z,1032.91
2016-11-14T03:08:14.940Z,1032.88
2016-11-14T03:09:25.240Z,1032.93
2016-11-14T03:10:34.938Z,1032.94
2016-11-14T03:11:44.933Z,1032.95
2016-11-14T03:12:55.257Z,1032.95
2016-11-14T03:14:04.946Z,1032.96
2016-11-14T03:15:14.797Z,1032.98
2016-11-14T03:16:24.906Z,1032.95
2016-11-14T03:17:35.287Z,1032.93
2016-11-14T03:18:45.010Z,1032.91
2016-11-14T03:19:55.017Z,1032.85
2016-11-14T03:21:04.428Z,1032.88
2016-11-14T03:22:14.146Z,1032.85
2016-11-14T03:23:23.839Z,1032.83
2016-11-14T03:24:34.308Z,1032.81
2016-11-14T03:25:43.378Z,1032.84
2016-11-14T03:26:53.066Z,1032.81
2016-11-14T03:28:02.837Z,1032.8
2016-11-14T03:29:12.838Z,1032.8
2016-11-14T03:30:22.237Z,1032.78
2016-11-14T03:31:32.321Z,1032.77
2016-11-14T03:32:41.993Z,1032.81
2016-11-14T03:33:51.779Z,1032.83
2016-11-14T03:35:01.873Z,1032.86
2016-11-14T03:36:12.186Z,1032.92
2016-11-14T03:37:22.177Z,1032.92
2016-11-14T03:38:32.632Z,1032.93
2016-11-14T03:39:42.959Z,1032.89
2016-11-14T03:40:52.656Z,1032.94
2016-11-14T03:42:02.355Z,1032.96
2016-11-14T03:43:11.728Z,1032.96
2016-11-14T03:44:21.777Z,1033
2016-11-14T03:45:31.168Z,1033.02
2016-11-14T03:46:40.546Z,1033.07
2016-11-14T03:47:50.869Z,1033.02
2016-11-14T03:49:00.861Z,1033.1
2016-11-14T03:50:10.619Z,1033.07
2016-11-14T03:51:20.048Z,1033.08
2016-11-14T03:52:30.152Z,1033.16
2016-11-14T03:53:40.290Z,1033.15
2016-11-14T03:54:50.408Z,1033.17
2016-11-14T03:56:00.138Z,1033.2
2016-11-14T03:57:10.450Z,1033.19
2016-11-14T03:58:20.500Z,1033.17
2016-11-14T03:59:30.181Z,1033.14
2016-11-14T04:00:40.159Z,1033.14
2016-11-14T04:01:50.260Z,1033.14
2016-11-14T04:03:00.271Z,1033.14
2016-11-14T04:04:09.968Z,1033.15
2016-11-14T04:05:19.650Z,1033.15
2016-11-14T04:06:29.664Z,1033.12
2016-11-14T04:07:39.719Z,1033.15
2016-11-14T04:08:49.096Z,1033.12
2016-11-14T04:09:59.484Z,1033.1
2016-11-14T04:11:09.461Z,1033.11
2016-11-14T04:12:19.232Z,1033.16
2016-11-14T04:13:29.297Z,1033.17
2016-11-14T04:14:38.909Z,1033.21
2016-11-14T04:15:48.939Z,1033.3
2016-11-14T04:16:59.001Z,1033.31
2016-11-14T04:18:08.995Z,1033.37
2016-11-14T04:19:18.588Z,1033.36
2016-11-14T04:20:28.278Z,1033.4
2016-11-14T04:21:38.131Z,1033.43
2016-11-14T04:22:47.833Z,1033.37
2016-11-14T04:23:57.825Z,1033.4
2016-11-14T04:25:07.849Z,1033.35
2016-11-14T04:26:17.552Z,1033.28
2016-11-14T04:27:27.341Z,1033.27
2016-11-14T04:28:36.731Z,1033.24
2016-11-14T04:29:47.086Z,1033.2
2016-11-14T04:30:57.408Z,1033.19
2016-11-14T04:32:07.776Z,1033.17
2016-11-14T04:33:17.459Z,1033.15
2016-11-14T04:34:27.159Z,1033.11
2016-11-14T04:35:37.539Z,1033.11
2016-11-14T04:36:47.290Z,1033.12
2016-11-14T04:37:57.341Z,1033.15
2016-11-14T04:39:07.333Z,1033.19
2016-11-14T04:40:16.799Z,1033.21
2016-11-14T04:41:26.799Z,1033.21
2016-11-14T04:42:36.899Z,1033.2
2016-11-14T04:43:46.985Z,1033.26
2016-11-14T04:44:56.676Z,1033.3
2016-11-14T04:46:06.722Z,1033.35
2016-11-14T04:47:17.118Z,1033.32
2016-11-14T04:48:27.213Z,1033.33
2016-11-14T04:49:37.572Z,1033.34
2016-11-14T04:50:47.961Z,1033.29
2016-11-14T04:51:58.047Z,1033.3
2016-11-14T04:53:08.357Z,1033.29
2016-11-14T04:54:18.367Z,1033.26
2016-11-14T04:55:28.802Z,1033.28
2016-11-14T04:56:38.839Z,1033.34
2016-11-14T04:57:49.269Z,1033.35
2016-11-14T04:58:59.643Z,1033.39
2016-11-14T05:00:09.687Z,1033.41
2016-11-14T05:01:19.999Z,1033.41
2016-11-14T05:02:30.319Z,1033.4
2016-11-14T05:03:40.030Z,1033.41
2016-11-14T05:04:49.679Z,1033.4
2016-11-14T05:05:59.991Z,1033.4
2016-11-14T05:07:09.259Z,1033.38
2016-11-14T05:08:19.245Z,1033.42
2016-11-14T05:09:29.468Z,1033.43
2016-11-14T05:10:39.281Z,1033.47
2016-11-14T05:11:49.615Z,1033.5
2016-11-14T05:12:59.795Z,1033.55
2016-11-14T05:14:08.906Z,1033.57
2016-11-14T05:15:19.235Z,1033.61
2016-11-14T05:16:29.320Z,1033.64
2016-11-14T05:17:39.953Z,1033.67
2016-11-14T05:18:50.299Z,1033.72
2016-11-14T05:19:59.691Z,1033.76
2016-11-14T05:21:10.057Z,1033.76
2016-11-14T05:22:20.128Z,1033.77
2016-11-14T05:23:30.461Z,1033.74
2016-11-14T05:24:40.160Z,1033.73
2016-11-14T05:25:50.239Z,1033.68
2016-11-14T05:27:00.531Z,1033.73
2016-11-14T05:28:10.989Z,1033.7
2016-11-14T05:29:21.094Z,1033.65
2016-11-14T05:30:31.180Z,1033.61
2016-11-14T05:31:40.877Z,1033.62
2016-11-14T05:32:51.217Z,1033.63
2016-11-14T05:34:01.280Z,1033.54
2016-11-14T05:35:10.958Z,1033.49
2016-11-14T05:36:21.102Z,1033.49
2016-11-14T05:37:31.101Z,1033.48
2016-11-14T05:38:41.148Z,1033.52
2016-11-14T05:39:50.835Z,1033.54
2016-11-14T05:41:00.619Z,1033.52
2016-11-14T05:42:09.739Z,1033.51
2016-11-14T05:43:20.150Z,1033.51
2016-11-14T05:44:30.654Z,1033.45
2016-11-14T05:45:40.651Z,1033.48
2016-11-14T05:46:50.979Z,1033.5
2016-11-14T05:48:01.086Z,1033.47
2016-11-14T05:49:11.379Z,1033.5
2016-11-14T05:50:21.960Z,1033.45
2016-11-14T05:51:31.957Z,1033.47
2016-11-14T05:52:41.338Z,1033.48
2016-11-14T05:53:51.329Z,1033.53
2016-11-14T05:55:01.360Z,1033.49
2016-11-14T05:56:11.500Z,1033.48
2016-11-14T05:57:21.829Z,1033.5
2016-11-14T05:58:32.141Z,1033.48
2016-11-14T05:59:42.194Z,1033.44
2016-11-14T06:00:52.559Z,1033.49
2016-11-14T06:02:02.409Z,1033.45
2016-11-14T06:03:11.939Z,1033.43
2016-11-14T06:04:21.342Z,1033.43
2016-11-14T06:05:31.479Z,1033.43
2016-11-14T06:06:41.175Z,1033.45
2016-11-14T06:07:50.856Z,1033.42
2016-11-14T06:09:01.171Z,1033.43
2016-11-14T06:10:10.958Z,1033.42
2016-11-14T06:11:21.288Z,1033.46
2016-11-14T06:12:31.059Z,1033.46
2016-11-14T06:13:41.092Z,1033.44
2016-11-14T06:14:50.781Z,1033.46
2016-11-14T06:16:00.620Z,1033.44
2016-11-14T06:17:10.629Z,1033.46
2016-11-14T06:18:20.980Z,1033.43
2016-11-14T06:19:30.749Z,1033.45
2016-11-14T06:20:40.457Z,1033.53
2016-11-14T06:21:50.773Z,1033.53
2016-11-14T06:23:01.248Z,1033.53
2016-11-14T06:24:10.630Z,1033.53
2016-11-14T06:25:20.678Z,1033.52
2016-11-14T06:26:30.358Z,1033.56
2016-11-14T06:27:40.361Z,1033.58
2016-11-14T06:28:50.102Z,1033.61
2016-11-14T06:30:00.412Z,1033.63
2016-11-14T06:31:10.840Z,1033.64
2016-11-14T06:32:20.958Z,1033.68
2016-11-14T06:33:31.057Z,1033.69
2016-11-14T06:34:41.088Z,1033.67
2016-11-14T06:35:51.408Z,1033.68
2016-11-14T06:37:01.412Z,1033.7
2016-11-14T06:38:11.728Z,1033.69
2016-11-14T06:39:21.747Z,1033.68
2016-11-14T06:40:31.812Z,1033.67
2016-11-14T06:41:41.520Z,1033.67
2016-11-14T06:42:51.838Z,1033.68
2016-11-14T06:44:02.169Z,1033.64
2016-11-14T06:45:12.259Z,1033.67
2016-11-14T06:46:22.616Z,1033.65
2016-11-14T06:47:32.361Z,1033.69
2016-11-14T06:48:42.363Z,1033.68
2016-11-14T06:49:52.358Z,1033.72
2016-11-14T06:51:03.145Z,1033.73
2016-11-14T06:52:12.887Z,1033.68
2016-11-14T06:53:22.131Z,1033.69
2016-11-14T06:54:31.205Z,1033.73
2016-11-14T06:55:41.235Z,1033.77
2016-11-14T06:56:51.555Z,1033.79
2016-11-14T06:58:01.689Z,1033.81
2016-11-14T06:59:11.993Z,1033.84
2016-11-14T07:00:22.399Z,1033.85
2016-11-14T07:01:32.178Z,1033.84
2016-11-14T07:02:42.219Z,1033.83
2016-11-14T07:03:52.588Z,1033.82
2016-11-14T07:05:02.323Z,1033.79
2016-11-14T07:06:12.977Z,1033.79
2016-11-14T07:07:22.987Z,1033.86
2016-11-14T07:08:32.860Z,1033.9
2016-11-14T07:09:43.198Z,1033.89
2016-11-14T07:10:52.897Z,1033.89
2016-11-14T07:12:03.057Z,1033.92
2016-11-14T07:13:13.508Z,1033.86
2016-11-14T07:14:23.841Z,1033.86
2016-11-14T07:15:33.536Z,1033.81
2016-11-14T07:16:43.517Z,1033.84
2016-11-14T07:17:53.235Z,1033.81
2016-11-14T07:19:03.500Z,1033.86
2016-11-14T07:20:13.509Z,1033.88
2016-11-14T07:21:23.523Z,1033.87
2016-11-14T07:22:33.524Z,1033.89
2016-11-14T07:23:43.859Z,1033.9
2016-11-14T07:24:53.859Z,1033.85
2016-11-14T07:26:03.899Z,1033.86
2016-11-14T07:27:14.205Z,1033.88
2016-11-14T07:28:24.310Z,1033.89
2016-11-14T07:29:34.006Z,1033.87
2016-11-14T07:30:43.767Z,1033.91
2016-11-14T07:31:53.459Z,1033.94
2016-11-14T07:33:03.454Z,1033.93
2016-11-14T07:34:13.187Z,1033.93
2016-11-14T07:35:23.209Z,1034
2016-11-14T07:36:32.708Z,1034.01
2016-11-14T07:37:42.752Z,1034.02
2016-11-14T07:38:52.878Z,1034.03
2016-11-14T07:40:03.272Z,1034.07
2016-11-14T07:41:12.984Z,1034.04
2016-11-14T07:42:22.978Z,1034
2016-11-14T07:43:33.297Z,1033.98
2016-11-14T07:44:42.990Z,1033.95
2016-11-14T07:45:53.307Z,1033.98
2016-11-14T07:47:03.031Z,1033.93
2016-11-14T07:48:13.186Z,1033.95
2016-11-14T07:49:23.444Z,1033.98
2016-11-14T07:50:33.449Z,1034
2016-11-14T07:51:43.151Z,1034.01
2016-11-14T07:52:53.169Z,1034.02
2016-11-14T07:54:03.276Z,1034.02
2016-11-14T07:55:13.132Z,1033.99
2016-11-14T07:56:22.879Z,1033.96
2016-11-14T07:57:33.484Z,1034.01
2016-11-14T07:58:43.241Z,1033.97
2016-11-14T07:59:53.679Z,1033.98
2016-11-14T08:01:03.367Z,1033.98
2016-11-14T08:02:13.275Z,1033.99
2016-11-14T08:03:23.311Z,1034.04
2016-11-14T08:04:33.425Z,1034.03
2016-11-14T08:05:43.718Z,1034.02
2016-11-14T08:06:54.044Z,1033.94
2016-11-14T08:08:04.489Z,1033.94
2016-11-14T08:09:14.505Z,1033.9
2016-11-14T08:10:24.689Z,1033.9
2016-11-14T08:11:34.997Z,1033.85
2016-11-14T08:12:45.129Z,1033.83
2016-11-14T08:13:55.455Z,1033.78
2016-11-14T08:15:05.772Z,1033.76
2016-11-14T08:16:15.798Z,1033.7
2016-11-14T08:17:25.899Z,1033.68
2016-11-14T08:18:35.587Z,1033.68
2016-11-14T08:19:45.502Z,1033.62
2016-11-14T08:20:55.260Z,1033.67
2016-11-14T08:22:05.511Z,1033.67
2016-11-14T08:23:15.524Z,1033.68
2016-11-14T08:24:24.615Z,1033.75
2016-11-14T08:25:34.337Z,1033.75
2016-11-14T08:26:44.358Z,1033.73
2016-11-14T08:27:54.449Z,1033.7
2016-11-14T08:29:04.773Z,1033.68
2016-11-14T08:30:15.105Z,1033.66
2016-11-14T08:31:24.859Z,1033.66
2016-11-14T08:32:34.227Z,1033.7
2016-11-14T08:33:43.620Z,1033.69
2016-11-14T08:34:53.150Z,1033.72
2016-11-14T08:36:03.576Z,1033.75
2016-11-14T08:37:13.576Z,1033.73
2016-11-14T08:38:23.387Z,1033.71
2016-11-14T08:39:33.088Z,1033.75
2016-11-14T08:40:43.529Z,1033.76
2016-11-14T08:41:53.888Z,1033.73
2016-11-14T08:43:03.589Z,1033.72
2016-11-14T08:44:13.278Z,1033.78
2016-11-14T08:45:23.037Z,1033.72
2016-11-14T08:46:33.545Z,1033.71
2016-11-14T08:47:43.867Z,1033.71
2016-11-14T08:48:53.965Z,1033.73
2016-11-14T08:50:03.641Z,1033.68
2016-11-14T08:51:13.689Z,1033.66
2016-11-14T08:52:23.756Z,1033.67
2016-11-14T08:53:33.917Z,1033.68
2016-11-14T08:54:43.341Z,1033.67
2016-11-14T08:55:53.629Z,1033.68
2016-11-14T08:57:03.310Z,1033.67
2016-11-14T08:58:12.752Z,1033.72
2016-11-14T08:59:23.117Z,1033.68
2016-11-14T09:00:32.833Z,1033.73
2016-11-14T09:01:42.544Z,1033.75
2016-11-14T09:02:51.915Z,1033.71
2016-11-14T09:04:01.300Z,1033.73
2016-11-14T09:05:11.170Z,1033.71
2016-11-14T09:06:20.907Z,1033.7
2016-11-14T09:07:30.680Z,1033.69
2016-11-14T09:08:40.123Z,1033.74
2016-11-14T09:09:50.241Z,1033.77
2016-11-14T09:11:00.302Z,1033.72
2016-11-14T09:12:10.020Z,1033.71
2016-11-14T09:13:19.724Z,1033.74
2016-11-14T09:14:29.734Z,1033.76
2016-11-14T09:15:39.740Z,1033.8
2016-11-14T09:16:49.771Z,1033.82
2016-11-14T09:17:59.811Z,1033.82
2016-11-14T09:19:08.871Z,1033.83
2016-11-14T09:20:18.568Z,1033.82
2016-11-14T09:21:28.622Z,1033.82
2016-11-14T09:22:38.389Z,1033.84
2016-11-14T09:23:48.099Z,1033.85
2016-11-14T09:24:57.494Z,1033.83
2016-11-14T09:26:06.893Z,1033.9
2016-11-14T09:27:16.578Z,1033.87
2016-11-14T09:28:26.587Z,1033.84
2016-11-14T09:29:36.267Z,1033.81
2016-11-14T09:30:46.387Z,1033.82
2016-11-14T09:31:56.405Z,1033.86
2016-11-14T09:33:06.849Z,1033.89
2016-11-14T09:34:16.304Z,1033.91
2016-11-14T09:35:26.069Z,1033.95
2016-11-14T09:36:35.933Z,1033.86
2016-11-14T09:37:45.309Z,1033.89
2016-11-14T09:38:54.943Z,1033.82
2016-11-14T09:40:04.039Z,1033.85
2016-11-14T09:41:14.056Z,1033.88
2016-11-14T09:42:23.736Z,1033.92
2016-11-14T09:43:33.114Z,1033.91
2016-11-14T09:44:42.562Z,1033.9
2016-11-14T09:45:51.978Z,1033.88
2016-11-14T09:47:02.010Z,1033.91
2016-11-14T09:48:11.399Z,1033.9
2016-11-14T09:49:21.727Z,1033.85
2016-11-14T09:50:31.546Z,1033.85
2016-11-14T09:51:41.739Z,1033.79
2016-11-14T09:52:51.145Z,1033.79
2016-11-14T09:54:01.431Z,1033.74
2016-11-14T09:55:11.157Z,1033.69
2016-11-14T09:56:20.956Z,1033.68
2016-11-14T09:57:30.919Z,1033.61
2016-11-14T09:58:40.628Z,1033.6
2016-11-14T09:59:50.969Z,1033.57
2016-11-14T10:01:01.089Z,1033.6
2016-11-14T10:02:10.999Z,1033.64
2016-11-14T10:03:21.263Z,1033.62
2016-11-14T10:04:31.696Z,1033.63
2016-11-14T10:05:42.021Z,1033.6
2016-11-14T10:06:52.015Z,1033.6
2016-11-14T10:08:01.394Z,1033.59
2016-11-14T10:09:11.604Z,1033.57
2016-11-14T10:10:21.617Z,1033.56
2016-11-14T10:11:31.233Z,1033.5
2016-11-14T10:12:41.684Z,1033.52
2016-11-14T10:13:51.219Z,1033.51
2016-11-14T10:15:00.732Z,1033.51
2016-11-14T10:16:10.453Z,1033.56
2016-11-14T10:17:20.590Z,1033.54
2016-11-14T10:18:30.621Z,1033.5
2016-11-14T10:19:40.320Z,1033.48
2016-11-14T10:20:50.729Z,1033.45
2016-11-14T10:22:00.440Z,1033.49
2016-11-14T10:23:10.142Z,1033.53
2016-11-14T10:24:20.201Z,1033.44
2016-11-14T10:25:30.329Z,1033.39
2016-11-14T10:26:40.382Z,1033.36
2016-11-14T10:27:49.778Z,1033.37
2016-11-14T10:28:59.457Z,1033.35
2016-11-14T10:30:09.463Z,1033.26
2016-11-14T10:31:19.214Z,1033.29
2016-11-14T10:32:28.367Z,1033.27
2016-11-14T10:33:37.911Z,1033.27
2016-11-14T10:34:47.609Z,1033.26
2016-11-14T10:35:57.718Z,1033.25
2016-11-14T10:37:07.515Z,1033.23
2016-11-14T10:38:17.521Z,1033.23
2016-11-14T10:39:27.207Z,1033.2
2016-11-14T10:40:37.277Z,1033.21
2016-11-14T10:41:46.980Z,1033.2
2016-11-14T10:42:57.368Z,1033.2
2016-11-14T10:44:07.109Z,1033.2
2016-11-14T10:45:17.438Z,1033.2
2016-11-14T10:46:27.760Z,1033.15
2016-11-14T10:47:38.128Z,1033.16
2016-11-14T10:48:47.517Z,1033.12
2016-11-14T10:49:57.535Z,1033.12
2016-11-14T10:51:07.557Z,1033.14
2016-11-14T10:52:17.957Z,1033.07
2016-11-14T10:53:27.743Z,1033.07
2016-11-14T10:54:37.749Z,1033.04
2016-11-14T10:55:48.158Z,1033.04
2016-11-14T10:56:58.168Z,1032.97
2016-11-14T10:58:08.469Z,1032.97
2016-11-14T10:59:18.499Z,1032.88
2016-11-14T11:00:28.521Z,1032.91
2016-11-14T11:01:37.592Z,1032.91
2016-11-14T11:02:47.324Z,1032.91
2016-11-14T11:03:57.167Z,1032.95
2016-11-14T11:05:07.214Z,1032.94
2016-11-14T11:06:17.228Z,1032.92
2016-11-14T11:07:26.912Z,1032.93
2016-11-14T11:08:36.979Z,1032.93
2016-11-14T11:09:46.671Z,1032.88
2016-11-14T11:10:56.867Z,1032.89
2016-11-14T11:12:07.157Z,1032.87
2016-11-14T11:13:17.295Z,1032.8
2016-11-14T11:14:26.999Z,1032.78
2016-11-14T11:15:36.503Z,1032.76
2016-11-14T11:16:46.207Z,1032.78
2016-11-14T11:17:55.909Z,1032.79
2016-11-14T11:19:05.621Z,1032.75
2016-11-14T11:20:15.708Z,1032.69
2016-11-14T11:21:25.409Z,1032.71
2016-11-14T11:22:35.439Z,1032.63
2016-11-14T11:23:45.445Z,1032.58
2016-11-14T11:24:55.148Z,1032.54
2016-11-14T11:26:05.463Z,1032.56
2016-11-14T11:27:15.599Z,1032.53
2016-11-14T11:28:25.371Z,1032.53
2016-11-14T11:29:35.111Z,1032.56
2016-11-14T11:30:45.128Z,1032.56
2016-11-14T11:31:54.905Z,1032.56
2016-11-14T11:33:04.470Z,1032.46
2016-11-14T11:34:14.477Z,1032.45
2016-11-14T11:35:24.068Z,1032.45
2016-11-14T11:36:34.294Z,1032.48
2016-11-14T11:37:44.360Z,1032.37
2016-11-14T11:38:54.700Z,1032.42
2016-11-14T11:40:04.391Z,1032.37
2016-11-14T11:41:14.788Z,1032.35
2016-11-14T11:42:24.890Z,1032.31
2016-11-14T11:43:34.986Z,1032.31
2016-11-14T11:44:44.703Z,1032.3
2016-11-14T11:45:54.758Z,1032.26
2016-11-14T11:47:05.091Z,1032.25
2016-11-14T11:48:15.150Z,1032.3
2016-11-14T11:49:25.468Z,1032.33
2016-11-14T11:50:35.230Z,1032.33
2016-11-14T11:51:45.082Z,1032.33
2016-11-14T11:52:54.859Z,1032.35
2016-11-14T11:54:04.964Z,1032.35
2016-11-14T11:55:14.958Z,1032.27
2016-11-14T11:56:25.009Z,1032.2
2016-11-14T11:57:35.340Z,1032.09
2016-11-14T11:58:45.362Z,1032.05
2016-11-14T11:59:55.769Z,1032.05
2016-11-14T12:01:05.818Z,1032.04
2016-11-14T12:02:15.898Z,1032.12
2016-11-14T12:03:25.597Z,1032.15
2016-11-14T12:04:35.631Z,1032.11
2016-11-14T12:05:45.652Z,1032.12
2016-11-14T12:06:55.662Z,1032.08
2016-11-14T12:08:05.668Z,1032.09
2016-11-14T12:09:15.870Z,1032.05
2016-11-14T12:10:25.890Z,1032
2016-11-14T12:11:36.056Z,1031.97
2016-11-14T12:12:45.756Z,1031.96
2016-11-14T12:13:55.758Z,1031.92
2016-11-14T12:15:04.880Z,1031.93
2016-11-14T12:16:14.252Z,1031.92
2016-11-14T12:17:25.028Z,1031.93
2016-11-14T12:18:34.803Z,1031.94
2016-11-14T12:19:45.157Z,1031.9
2016-11-14T12:20:55.002Z,1031.93
2016-11-14T12:22:05.346Z,1031.92
2016-11-14T12:23:15.662Z,1031.95
2016-11-14T12:24:25.688Z,1032.02
2016-11-14T12:25:35.482Z,1032.02
2016-11-14T12:26:45.187Z,1032.01
2016-11-14T12:27:55.336Z,1032.02
2016-11-14T12:29:05.337Z,1031.96
2016-11-14T12:30:15.348Z,1031.87
2016-11-14T12:31:24.744Z,1031.87
2016-11-14T12:32:35.079Z,1031.87
2016-11-14T12:33:44.777Z,1031.88
2016-11-14T12:34:54.677Z,1031.85
2016-11-14T12:36:04.708Z,1031.81
2016-11-14T12:37:14.637Z,1031.84
2016-11-14T12:38:24.440Z,1031.82
2016-11-14T12:39:34.808Z,1031.84
2016-11-14T12:40:44.213Z,1031.82
2016-11-14T12:41:54.219Z,1031.8
2016-11-14T12:43:04.544Z,1031.78
2016-11-14T12:44:13.637Z,1031.81
2016-11-14T12:45:23.408Z,1031.84
2016-11-14T12:46:33.467Z,1031.79
2016-11-14T12:47:43.773Z,1031.68
2016-11-14T12:48:54.109Z,1031.63
2016-11-14T12:50:03.556Z,1031.64
2016-11-14T12:51:13.879Z,1031.67
2016-11-14T12:52:23.905Z,1031.66
2016-11-14T12:53:33.942Z,1031.64
2016-11-14T12:54:44.098Z,1031.67
2016-11-14T12:55:54.442Z,1031.67
2016-11-14T12:57:04.430Z,1031.7
2016-11-14T12:58:14.778Z,1031.68
2016-11-14T12:59:24.599Z,1031.75
2016-11-14T13:00:34.907Z,1031.74
2016-11-14T13:01:45.740Z,1031.77
2016-11-14T13:02:55.456Z,1031.78
2016-11-14T13:04:05.873Z,1031.74
2016-11-14T13:05:15.877Z,1031.72
2016-11-14T13:06:25.435Z,1031.7
2016-11-14T13:07:35.755Z,1031.69
2016-11-14T13:08:45.762Z,1031.72
2016-11-14T13:09:55.197Z,1031.7
2016-11-14T13:11:05.016Z,1031.68
2016-11-14T13:12:15.356Z,1031.68
2016-11-14T13:13:25.057Z,1031.7
2016-11-14T13:14:34.896Z,1031.7
2016-11-14T13:15:45.526Z,1031.72
2016-11-14T13:16:55.869Z,1031.68
2016-11-14T13:18:06.185Z,1031.66
2016-11-14T13:19:16.017Z,1031.71
2016-11-14T13:20:26.102Z,1031.65
2016-11-14T13:21:35.883Z,1031.72
2016-11-14T13:22:46.208Z,1031.69
2016-11-14T13:23:56.524Z,1031.67
2016-11-14T13:25:06.657Z,1031.68
2016-11-14T13:26:17.075Z,1031.65
2016-11-14T13:27:26.821Z,1031.62
2016-11-14T13:28:36.957Z,1031.59
2016-11-14T13:29:47.294Z,1031.59
2016-11-14T13:30:57.408Z,1031.61
2016-11-14T13:32:07.481Z,1031.55
2016-11-14T13:33:17.583Z,1031.57
2016-11-14T13:34:27.616Z,1031.56
2016-11-14T13:35:38.012Z,1031.53
2016-11-14T13:36:48.030Z,1031.53
2016-11-14T13:37:58.126Z,1031.54
2016-11-14T13:39:08.124Z,1031.53
2016-11-14T13:40:17.859Z,1031.5
2016-11-14T13:41:28.220Z,1031.46
2016-11-14T13:42:38.645Z,1031.53
2016-11-14T13:43:48.075Z,1031.51
2016-11-14T13:44:57.477Z,1031.54
2016-11-14T13:46:07.501Z,1031.55
2016-11-14T13:47:17.606Z,1031.56
2016-11-14T13:48:27.734Z,1031.55
2016-11-14T13:49:37.782Z,1031.52
2016-11-14T13:50:47.765Z,1031.51
2016-11-14T13:51:57.782Z,1031.47
2016-11-14T13:53:07.788Z,1031.45
2016-11-14T13:54:17.574Z,1031.5
2016-11-14T13:55:27.427Z,1031.46
2016-11-14T13:56:37.740Z,1031.47
2016-11-14T13:57:47.889Z,1031.46
2016-11-14T13:58:58.312Z,1031.47
2016-11-14T14:00:08.347Z,1031.46
2016-11-14T14:01:18.793Z,1031.44
2016-11-14T14:02:28.816Z,1031.44
2016-11-14T14:03:38.822Z,1031.4
2016-11-14T14:04:48.937Z,1031.37
2016-11-14T14:05:58.973Z,1031.4
2016-11-14T14:07:08.492Z,1031.35
2016-11-14T14:08:18.734Z,1031.3
2016-11-14T14:09:27.866Z,1031.3